Becky S — WDH8525 — position and weather

sailwx.info

Track history (hours):
 
Tides and Currents Weather Stations Pressure Air Temp Water Temp Dewpoint Dewpoint Depression Visibility Wind Speed Wind Dir Waves Ship Positions

Becky S

Owner: Bisso Tow Boats Inc, New Orleans, LA. More information available from US FCC via Universal Licensing System and Coast Guard Vessel Documentation Center.

Last reported at 2018-May-18 11:33 UTC. Time now 2018-May-22 17:26 UTC.
Position N 30°04' W 090°54'.

Length 30 m.

Type: Tug. MMSI: 367658890.

Date/timePositionNaut miles runAvg speedWind from/ knotsBaromVisibWave heightAir tempDewpointWater temp
2018-May-18 11:33N 30°04' W 090°54'0 0.0
2018-May-18 11:28N 30°04' W 090°54'0 0.0
2018-May-18 10:45N 30°04' W 090°54'0 0.0
2018-May-18 09:14N 30°04' W 090°54'0 0.0
2018-May-18 09:00N 30°04' W 090°54'7 0.3
2018-May-17 11:50N 30°09' W 090°60'0 0.0
2018-May-17 11:28N 30°09' W 090°60'  
2018-May-14 12:24N 29°57' W 090°09'  
2018-May-10 12:26N 30°03' W 090°30'27 1.1
2018-May-09 12:31N 30°09' W 090°60'0 1.9
2018-May-09 12:30N 30°09' W 090°60'1 2.9
2018-May-09 12:00N 30°11' W 091°00'0 0.0
2018-May-09 11:30N 30°11' W 091°00'0 0.0
2018-May-09 11:00N 30°11' W 091°00'0 0.0
2018-May-09 10:09N 30°11' W 091°00'0 0.1
2018-May-09 10:00N 30°11' W 091°00'0 0.0
2018-May-09 09:30N 30°11' W 091°00'0 0.0
2018-May-09 09:00N 30°11' W 091°00'0 0.0
2018-May-09 08:30N 30°11' W 091°00'0 0.0
2018-May-09 08:00N 30°11' W 091°00'0 0.0
2018-May-09 07:30N 30°11' W 091°00'0 0.0
2018-May-09 06:51N 30°11' W 091°00'0 0.0
2018-May-09 06:03N 30°11' W 091°00'0 0.0
2018-May-09 04:51N 30°11' W 091°00'0 0.0
2018-May-08 13:50N 30°11' W 091°00'0 0.0
2018-May-08 13:30N 30°11' W 091°00'0 0.0
2018-May-08 13:00N 30°11' W 091°00'0 0.0
2018-May-08 12:26N 30°11' W 091°00'  
Track history (hours):
 
Tides and Currents Weather Stations Pressure Air Temp Water Temp Dewpoint Dewpoint Depression Visibility Wind Speed Wind Dir Waves Ship Positions

Becky S

Owner: Bisso Tow Boats Inc, New Orleans, LA. More information available from US FCC via Universal Licensing System and Coast Guard Vessel Documentation Center.

Last reported at 2018-May-18 11:33 UTC. Time now 2018-May-22 17:26 UTC.
Position N 30°04' W 090°54'.

Length 30 m.

Type: Tug. MMSI: 367658890.

Date/timePositionNaut miles runAvg speedWind from/ knotsBaromVisibWave heightAir tempDewpointWater temp
2018-May-18 11:33N 30°04' W 090°54'0 0.0
2018-May-18 11:28N 30°04' W 090°54'0 0.0
2018-May-18 10:45N 30°04' W 090°54'0 0.0
2018-May-18 09:14N 30°04' W 090°54'0 0.0
2018-May-18 09:00N 30°04' W 090°54'7 0.3
2018-May-17 11:50N 30°09' W 090°60'0 0.0
2018-May-17 11:28N 30°09' W 090°60'  
2018-May-14 12:24N 29°57' W 090°09'  
2018-May-10 12:26N 30°03' W 090°30'27 1.1
2018-May-09 12:31N 30°09' W 090°60'0 1.9
2018-May-09 12:30N 30°09' W 090°60'1 2.9
2018-May-09 12:00N 30°11' W 091°00'0 0.0
2018-May-09 11:30N 30°11' W 091°00'0 0.0
2018-May-09 11:00N 30°11' W 091°00'0 0.0
2018-May-09 10:09N 30°11' W 091°00'0 0.1
2018-May-09 10:00N 30°11' W 091°00'0 0.0
2018-May-09 09:30N 30°11' W 091°00'0 0.0
2018-May-09 09:00N 30°11' W 091°00'0 0.0
2018-May-09 08:30N 30°11' W 091°00'0 0.0
2018-May-09 08:00N 30°11' W 091°00'0 0.0
2018-May-09 07:30N 30°11' W 091°00'0 0.0
2018-May-09 06:51N 30°11' W 091°00'0 0.0
2018-May-09 06:03N 30°11' W 091°00'0 0.0
2018-May-09 04:51N 30°11' W 091°00'0 0.0
2018-May-08 13:50N 30°11' W 091°00'0 0.0
2018-May-08 13:30N 30°11' W 091°00'0 0.0
2018-May-08 13:00N 30°11' W 091°00'0 0.0
2018-May-08 12:26N 30°11' W 091°00'  

Dump ship's entire track history